sensor_id;sensor_type;location;lat;lon;timestamp;pressure;altitude;pressure_sealevel;temperature;humidity
40838;BME280;29632;49.168;9.848;2023-04-01T00:00:53;95374.25;;;11.85;49.74
40838;BME280;29632;49.168;9.848;2023-04-01T00:03:20;95370.63;;;11.86;50.08
40838;BME280;29632;49.168;9.848;2023-04-01T00:05:46;95377.31;;;11.88;50.07
40838;BME280;29632;49.168;9.848;2023-04-01T00:08:12;95376.47;;;11.88;49.96
40838;BME280;29632;49.168;9.848;2023-04-01T00:10:38;95375.50;;;11.89;49.83
40838;BME280;29632;49.168;9.848;2023-04-01T00:13:04;95371.25;;;11.88;49.84
40838;BME280;29632;49.168;9.848;2023-04-01T00:15:30;95364.44;;;11.87;49.63
40838;BME280;29632;49.168;9.848;2023-04-01T00:17:55;95369.09;;;11.92;49.68
40838;BME280;29632;49.168;9.848;2023-04-01T00:20:21;95367.16;;;11.94;49.78
40838;BME280;29632;49.168;9.848;2023-04-01T00:22:47;95365.16;;;11.96;49.74
40838;BME280;29632;49.168;9.848;2023-04-01T00:25:13;95366.75;;;11.97;49.73
40838;BME280;29632;49.168;9.848;2023-04-01T00:27:40;95366.75;;;11.97;49.83
40838;BME280;29632;49.168;9.848;2023-04-01T00:30:06;95367.56;;;11.97;49.86
40838;BME280;29632;49.168;9.848;2023-04-01T00:32:33;95370.19;;;11.97;49.85
40838;BME280;29632;49.168;9.848;2023-04-01T00:34:58;95365.16;;;11.96;49.63
40838;BME280;29632;49.168;9.848;2023-04-01T00:37:25;95368.56;;;11.96;49.66
40838;BME280;29632;49.168;9.848;2023-04-01T00:39:51;95371.97;;;11.97;49.62
40838;BME280;29632;49.168;9.848;2023-04-01T00:42:17;95379.78;;;11.97;49.93
40838;BME280;29632;49.168;9.848;2023-04-01T00:44:47;95375.41;;;11.97;49.85
40838;BME280;29632;49.168;9.848;2023-04-01T00:47:13;95380.81;;;11.96;49.89
40838;BME280;29632;49.168;9.848;2023-04-01T00:49:41;95374.16;;;11.93;50.05
40838;BME280;29632;49.168;9.848;2023-04-01T00:52:11;95372.53;;;11.92;49.82
40838;BME280;29632;49.168;9.848;2023-04-01T00:54:38;95375.34;;;11.90;50.00
40838;BME280;29632;49.168;9.848;2023-04-01T00:57:31;95374.31;;;11.92;49.71
40838;BME280;29632;49.168;9.848;2023-04-01T00:59:59;95373.34;;;11.93;49.89
40838;BME280;29632;49.168;9.848;2023-04-01T01:02:25;95368.13;;;11.93;49.70
40838;BME280;29632;49.168;9.848;2023-04-01T01:04:51;95372.19;;;11.95;50.03
40838;BME280;29632;49.168;9.848;2023-04-01T01:34:32;95361.94;;;11.94;49.83
40838;BME280;29632;49.168;9.848;2023-04-01T01:37:05;95362.72;;;11.94;49.51
40838;BME280;29632;49.168;9.848;2023-04-01T01:39:33;95355.09;;;11.93;49.96
40838;BME280;29632;49.168;9.848;2023-04-01T01:42:05;95355.88;;;11.93;49.73
40838;BME280;29632;49.168;9.848;2023-04-01T01:44:31;95351.50;;;11.94;49.76
40838;BME280;29632;49.168;9.848;2023-04-01T01:46:58;95352.91;;;11.96;49.89
40838;BME280;29632;49.168;9.848;2023-04-01T01:49:25;95357.31;;;11.96;50.13
40838;BME280;29632;49.168;9.848;2023-04-01T01:51:52;95352.91;;;11.96;49.93
40838;BME280;29632;49.168;9.848;2023-04-01T01:54:18;95358.56;;;12.00;49.80
40838;BME280;29632;49.168;9.848;2023-04-01T01:56:46;95360.00;;;12.02;49.92
40838;BME280;29632;49.168;9.848;2023-04-01T01:59:13;95363.03;;;12.06;49.88
40838;BME280;29632;49.168;9.848;2023-04-01T02:01:42;95368.06;;;12.07;49.70
40838;BME280;29632;49.168;9.848;2023-04-01T02:04:10;95358.25;;;12.09;49.67
40838;BME280;29632;49.168;9.848;2023-04-01T02:06:38;95368.69;;;12.09;49.89
40838;BME280;29632;49.168;9.848;2023-04-01T02:09:06;95364.63;;;12.07;49.85
40838;BME280;29632;49.168;9.848;2023-04-01T02:11:37;95368.25;;;12.06;49.97
40838;BME280;29632;49.168;9.848;2023-04-01T02:14:16;95360.38;;;11.99;50.06
40838;BME280;29632;49.168;9.848;2023-04-01T02:19:11;95359.13;;;11.95;49.63
40838;BME280;29632;49.168;9.848;2023-04-01T02:21:38;95361.75;;;11.95;50.16
40838;BME280;29632;49.168;9.848;2023-04-01T02:24:08;95354.72;;;11.96;50.07
40838;BME280;29632;49.168;9.848;2023-04-01T02:26:35;95353.53;;;11.98;50.07
40838;BME280;29632;49.168;9.848;2023-04-01T02:29:01;95354.34;;;11.99;49.86
40838;BME280;29632;49.168;9.848;2023-04-01T02:31:29;95356.53;;;11.95;50.00
40838;BME280;29632;49.168;9.848;2023-04-01T02:33:55;95358.31;;;11.95;50.16
40838;BME280;29632;49.168;9.848;2023-04-01T02:36:21;95354.53;;;11.97;49.95
40838;BME280;29632;49.168;9.848;2023-04-01T02:38:47;95357.50;;;11.94;50.08
40838;BME280;29632;49.168;9.848;2023-04-01T02:41:13;95359.50;;;11.92;50.09
40838;BME280;29632;49.168;9.848;2023-04-01T02:43:39;95361.28;;;11.92;49.92
40838;BME280;29632;49.168;9.848;2023-04-01T02:46:05;95371.91;;;11.90;50.19
40838;BME280;29632;49.168;9.848;2023-04-01T02:48:31;95363.25;;;11.89;49.88
40838;BME280;29632;49.168;9.848;2023-04-01T02:50:56;95356.88;;;11.92;50.29
40838;BME280;29632;49.168;9.848;2023-04-01T02:53:22;95353.28;;;11.93;50.17
40838;BME280;29632;49.168;9.848;2023-04-01T02:55:47;95368.94;;;11.93;49.92
40838;BME280;29632;49.168;9.848;2023-04-01T02:58:16;95359.94;;;11.96;50.06
40838;BME280;29632;49.168;9.848;2023-04-01T03:00:42;95367.94;;;11.94;50.20
40838;BME280;29632;49.168;9.848;2023-04-01T03:03:08;95367.94;;;11.94;50.08
40838;BME280;29632;49.168;9.848;2023-04-01T03:05:33;95367.94;;;11.94;50.25
40838;BME280;29632;49.168;9.848;2023-04-01T03:07:59;95370.56;;;11.94;49.94
40838;BME280;29632;49.168;9.848;2023-04-01T03:10:25;95361.28;;;11.92;50.17
40838;BME280;29632;49.168;9.848;2023-04-01T03:12:50;95351.22;;;11.88;50.16
40838;BME280;29632;49.168;9.848;2023-04-01T03:15:16;95356.19;;;11.83;50.39
40838;BME280;29632;49.168;9.848;2023-04-01T03:17:42;95360.78;;;11.81;50.38
40838;BME280;29632;49.168;9.848;2023-04-01T03:20:09;95355.94;;;11.78;50.42
40838;BME280;29632;49.168;9.848;2023-04-01T03:22:36;95352.69;;;11.76;50.30
40838;BME280;29632;49.168;9.848;2023-04-01T03:25:02;95365.31;;;11.73;50.29
40838;BME280;29632;49.168;9.848;2023-04-01T03:27:28;95361.63;;;11.67;50.76
40838;BME280;29632;49.168;9.848;2023-04-01T03:29:53;95359.75;;;11.61;50.49
40838;BME280;29632;49.168;9.848;2023-04-01T03:32:19;95357.69;;;11.56;50.55
40838;BME280;29632;49.168;9.848;2023-04-01T03:34:45;95351.06;;;11.53;50.77
40838;BME280;29632;49.168;9.848;2023-04-01T03:37:10;95364.91;;;11.54;50.59
40838;BME280;29632;49.168;9.848;2023-04-01T03:39:36;95351.44;;;11.50;50.81
40838;BME280;29632;49.168;9.848;2023-04-01T03:42:02;95347.38;;;11.48;50.77
40838;BME280;29632;49.168;9.848;2023-04-01T03:44:31;95350.19;;;11.46;50.92
40838;BME280;29632;49.168;9.848;2023-04-01T03:46:57;95351.00;;;11.47;50.54
40838;BME280;29632;49.168;9.848;2023-04-01T03:49:23;95349.97;;;11.48;50.56
40838;BME280;29632;49.168;9.848;2023-04-01T03:51:49;95359.00;;;11.45;50.78
40838;BME280;29632;49.168;9.848;2023-04-01T03:54:14;95354.97;;;11.43;50.54
40838;BME280;29632;49.168;9.848;2023-04-01T03:56:40;95361.34;;;11.40;50.67
40838;BME280;29632;49.168;9.848;2023-04-01T03:59:06;95362.31;;;11.39;50.85
40838;BME280;29632;49.168;9.848;2023-04-01T04:01:32;95360.72;;;11.38;50.72
40838;BME280;29632;49.168;9.848;2023-04-01T04:03:58;95354.06;;;11.36;50.64
40838;BME280;29632;49.168;9.848;2023-04-01T04:06:25;95349.06;;;11.34;50.74
40838;BME280;29632;49.168;9.848;2023-04-01T04:08:50;95352.28;;;11.36;50.69
40838;BME280;29632;49.168;9.848;2023-04-01T04:11:16;95342.66;;;11.37;50.77
40838;BME280;29632;49.168;9.848;2023-04-01T04:13:42;95356.31;;;11.39;50.72
40838;BME280;29632;49.168;9.848;2023-04-01T04:16:09;95355.06;;;11.34;50.53
40838;BME280;29632;49.168;9.848;2023-04-01T04:18:36;95363.69;;;11.35;50.63
40838;BME280;29632;49.168;9.848;2023-04-01T04:21:02;95351.44;;;11.36;50.77
40838;BME280;29632;49.168;9.848;2023-04-01T04:23:28;95361.34;;;11.40;50.84
40838;BME280;29632;49.168;9.848;2023-04-01T04:26:04;95358.56;;;11.42;50.45
40838;BME280;29632;49.168;9.848;2023-04-01T04:28:30;95360.97;;;11.43;50.43
40838;BME280;29632;49.168;9.848;2023-04-01T04:30:56;95355.16;;;11.41;50.62
40838;BME280;29632;49.168;9.848;2023-04-01T04:33:23;95361.53;;;11.39;50.66
40838;BME280;29632;49.168;9.848;2023-04-01T04:35:49;95357.31;;;11.38;50.69
40838;BME280;29632;49.168;9.848;2023-04-01T04:38:15;95360.91;;;11.37;50.65
40838;BME280;29632;49.168;9.848;2023-04-01T04:40:41;95351.09;;;11.39;50.60
40838;BME280;29632;49.168;9.848;2023-04-01T04:43:11;95363.16;;;11.40;50.45
40838;BME280;29632;49.168;9.848;2023-04-01T04:45:36;95357.31;;;11.38;50.64
40838;BME280;29632;49.168;9.848;2023-04-01T04:48:02;95356.31;;;11.39;50.61
40838;BME280;29632;49.168;9.848;2023-04-01T04:50:28;95356.13;;;11.40;50.76
40838;BME280;29632;49.168;9.848;2023-04-01T04:52:54;95361.78;;;11.44;50.54
40838;BME280;29632;49.168;9.848;2023-04-01T04:55:20;95355.78;;;11.43;50.40
40838;BME280;29632;49.168;9.848;2023-04-01T04:57:46;95361.59;;;11.45;50.49
40838;BME280;29632;49.168;9.848;2023-04-01T05:00:12;95361.41;;;11.47;50.61
40838;BME280;29632;49.168;9.848;2023-04-01T05:02:37;95365.44;;;11.49;50.58
40838;BME280;29632;49.168;9.848;2023-04-01T05:05:03;95366.44;;;11.48;50.46
40838;BME280;29632;49.168;9.848;2023-04-01T05:07:29;95358.38;;;11.43;50.53
40838;BME280;29632;49.168;9.848;2023-04-01T05:09:55;95355.34;;;11.40;50.40
40838;BME280;29632;49.168;9.848;2023-04-01T05:12:21;95354.88;;;11.36;50.85
40838;BME280;29632;49.168;9.848;2023-04-01T05:14:46;95361.63;;;11.30;50.61
40838;BME280;29632;49.168;9.848;2023-04-01T05:17:12;95362.81;;;11.28;50.74
40838;BME280;29632;49.168;9.848;2023-04-01T05:19:39;95359.59;;;11.26;50.59
40838;BME280;29632;49.168;9.848;2023-04-01T05:22:05;95355.53;;;11.23;50.69
40838;BME280;29632;49.168;9.848;2023-04-01T05:24:31;95359.75;;;11.24;50.72
40838;BME280;29632;49.168;9.848;2023-04-01T05:26:57;95360.75;;;11.23;50.87
40838;BME280;29632;49.168;9.848;2023-04-01T05:29:24;95361.56;;;11.24;50.71
40838;BME280;29632;49.168;9.848;2023-04-01T05:31:49;95349.34;;;11.24;50.58
40838;BME280;29632;49.168;9.848;2023-04-01T05:34:15;95354.38;;;11.26;50.63
40838;BME280;29632;49.168;9.848;2023-04-01T05:36:41;95359.41;;;11.27;50.55
40838;BME280;29632;49.168;9.848;2023-04-01T05:39:07;95362.00;;;11.27;50.63
40838;BME280;29632;49.168;9.848;2023-04-01T05:41:37;95364.63;;;11.27;50.62
40838;BME280;29632;49.168;9.848;2023-04-01T05:44:03;95363.59;;;11.28;50.82
40838;BME280;29632;49.168;9.848;2023-04-01T05:46:30;95368.63;;;11.30;50.58
40838;BME280;29632;49.168;9.848;2023-04-01T05:48:56;95359.84;;;11.31;50.48
40838;BME280;29632;49.168;9.848;2023-04-01T05:51:21;95364.69;;;11.34;50.43
40838;BME280;29632;49.168;9.848;2023-04-01T05:53:47;95364.94;;;11.39;50.32
40838;BME280;29632;49.168;9.848;2023-04-01T05:56:13;95365.41;;;11.43;50.43
40838;BME280;29632;49.168;9.848;2023-04-01T05:58:39;95359.97;;;11.44;50.27
40838;BME280;29632;49.168;9.848;2023-04-01T06:01:10;95362.59;;;11.44;50.39
40838;BME280;29632;49.168;9.848;2023-04-01T06:03:36;95361.34;;;11.40;50.34
40838;BME280;29632;49.168;9.848;2023-04-01T06:06:02;95351.44;;;11.36;50.52
40838;BME280;29632;49.168;9.848;2023-04-01T06:08:31;95347.88;;;11.37;50.55
40838;BME280;29632;49.168;9.848;2023-04-01T06:11:22;95345.88;;;11.39;50.48
40838;BME280;29632;49.168;9.848;2023-04-01T06:17:23;95346.50;;;11.41;50.23
40838;BME280;29632;49.168;9.848;2023-04-01T06:19:38;95341.72;;;11.44;50.31
40838;BME280;29632;49.168;9.848;2023-04-01T06:39:35;95352.53;;;11.41;50.38
40838;BME280;29632;49.168;9.848;2023-04-01T06:52:56;95339.28;;;11.58;50.52
40838;BME280;29632;49.168;9.848;2023-04-01T06:55:29;95320.84;;;11.59;50.63
40838;BME280;29632;49.168;9.848;2023-04-01T06:57:59;95329.63;;;11.58;50.58
40838;BME280;29632;49.168;9.848;2023-04-01T07:00:29;95335.50;;;11.60;50.34
40838;BME280;29632;49.168;9.848;2023-04-01T07:03:21;95339.28;;;11.58;50.59
40838;BME280;29632;49.168;9.848;2023-04-01T07:05:48;95343.50;;;11.59;50.43
40838;BME280;29632;49.168;9.848;2023-04-01T07:08:21;95336.28;;;11.61;50.21
40838;BME280;29632;49.168;9.848;2023-04-01T07:10:58;95344.56;;;11.64;50.62
40838;BME280;29632;49.168;9.848;2023-04-01T07:13:31;95345.78;;;11.68;50.37
40838;BME280;29632;49.168;9.848;2023-04-01T07:16:21;95352.63;;;11.69;50.58
40838;BME280;29632;49.168;9.848;2023-04-01T07:18:45;95340.38;;;11.70;50.55
40838;BME280;29632;49.168;9.848;2023-04-01T07:21:32;95348.84;;;11.72;50.31
40838;BME280;29632;49.168;9.848;2023-04-01T07:24:04;95362.88;;;11.71;50.35
40838;BME280;29632;49.168;9.848;2023-04-01T07:26:31;95367.47;;;11.69;50.59
40838;BME280;29632;49.168;9.848;2023-04-01T07:28:57;95363.25;;;11.68;50.42
40838;BME280;29632;49.168;9.848;2023-04-01T07:31:55;95353.97;;;11.65;50.67
40838;BME280;29632;49.168;9.848;2023-04-01T07:34:50;95353.19;;;11.65;50.59
40838;BME280;29632;49.168;9.848;2023-04-01T07:45:44;95354.97;;;11.64;50.64
40838;BME280;29632;49.168;9.848;2023-04-01T07:48:33;95360.63;;;11.68;50.67
40838;BME280;29632;49.168;9.848;2023-04-01T07:51:24;95365.31;;;11.73;50.96
40838;BME280;29632;49.168;9.848;2023-04-01T07:54:17;95369.50;;;11.74;50.92
40838;BME280;29632;49.168;9.848;2023-04-01T08:02:36;95357.28;;;11.74;51.17
40838;BME280;29632;49.168;9.848;2023-04-01T08:05:13;95367.97;;;11.79;50.77
40838;BME280;29632;49.168;9.848;2023-04-01T08:16:10;95366.09;;;11.73;51.23
40838;BME280;29632;49.168;9.848;2023-04-01T08:18:44;95366.28;;;11.71;51.32
40838;BME280;29632;49.168;9.848;2023-04-01T08:21:25;95377.53;;;11.72;51.00
40838;BME280;29632;49.168;9.848;2023-04-01T08:23:54;95380.38;;;11.77;50.62
40838;BME280;29632;49.168;9.848;2023-04-01T08:26:37;95387.41;;;11.77;50.94
40838;BME280;29632;49.168;9.848;2023-04-01T08:29:19;95383.19;;;11.76;51.17
40838;BME280;29632;49.168;9.848;2023-04-01T08:34:37;95388.09;;;11.64;51.40
40838;BME280;29632;49.168;9.848;2023-04-01T08:37:22;95389.25;;;11.61;51.11
40838;BME280;29632;49.168;9.848;2023-04-01T08:39:55;95389.06;;;11.63;51.50
40838;BME280;29632;49.168;9.848;2023-04-01T08:45:17;95379.63;;;11.62;51.30
40838;BME280;29632;49.168;9.848;2023-04-01T08:47:56;95381.44;;;11.61;51.57
40838;BME280;29632;49.168;9.848;2023-04-01T08:51:02;95384.84;;;11.62;51.37
40838;BME280;29632;49.168;9.848;2023-04-01T08:56:34;95385.66;;;11.62;51.58
40838;BME280;29632;49.168;9.848;2023-04-01T09:06:57;95396.41;;;11.74;51.28
40838;BME280;29632;49.168;9.848;2023-04-01T09:09:57;95400.63;;;11.75;51.61
40838;BME280;29632;49.168;9.848;2023-04-01T09:21:22;95402.13;;;11.84;51.38
40838;BME280;29632;49.168;9.848;2023-04-01T09:29:46;95400.88;;;11.95;51.26
40838;BME280;29632;49.168;9.848;2023-04-01T09:44:09;95389.78;;;11.93;51.84
40838;BME280;29632;49.168;9.848;2023-04-01T09:46:54;95386.38;;;11.93;51.75
40838;BME280;29632;49.168;9.848;2023-04-01T09:49:50;95389.97;;;11.92;51.58
40838;BME280;29632;49.168;9.848;2023-04-01T10:00:55;95400.09;;;11.80;51.84
40838;BME280;29632;49.168;9.848;2023-04-01T10:12:56;95404.91;;;11.83;51.60
40838;BME280;29632;49.168;9.848;2023-04-01T10:15:32;95406.72;;;11.82;51.74
40838;BME280;29632;49.168;9.848;2023-04-01T10:21:26;95410.13;;;11.83;51.86
40838;BME280;29632;49.168;9.848;2023-04-01T10:27:05;95397.34;;;11.88;51.67
40838;BME280;29632;49.168;9.848;2023-04-01T10:41:30;95409.34;;;11.82;51.96
40838;BME280;29632;49.168;9.848;2023-04-01T10:47:17;95386.09;;;11.87;52.05
40838;BME280;29632;49.168;9.848;2023-04-01T10:55:51;95404.91;;;11.83;52.29
40838;BME280;29632;49.168;9.848;2023-04-01T11:07:40;95401.25;;;11.77;52.44
40838;BME280;29632;49.168;9.848;2023-04-01T11:13:33;95403.56;;;11.87;52.22
40838;BME280;29632;49.168;9.848;2023-04-01T11:16:45;95402.84;;;11.93;52.25
40838;BME280;29632;49.168;9.848;2023-04-01T11:33:39;95423.06;;;12.06;52.03
40838;BME280;29632;49.168;9.848;2023-04-01T11:36:21;95408.38;;;12.05;52.29
40838;BME280;29632;49.168;9.848;2023-04-01T11:39:24;95419.63;;;12.05;52.55
40838;BME280;29632;49.168;9.848;2023-04-01T11:44:29;95421.06;;;12.08;52.49
40838;BME280;29632;49.168;9.848;2023-04-01T12:14:25;95449.50;;;12.03;52.54
40838;BME280;29632;49.168;9.848;2023-04-01T12:19:48;95436.72;;;12.08;52.63
40838;BME280;29632;49.168;9.848;2023-04-01T12:22:26;95444.19;;;12.11;52.42
40838;BME280;29632;49.168;9.848;2023-04-01T12:28:03;95443.00;;;12.14;52.60
40838;BME280;29632;49.168;9.848;2023-04-01T12:36:28;95450.47;;;12.17;52.42
40838;BME280;29632;49.168;9.848;2023-04-01T12:39:15;95440.81;;;12.17;52.44
40838;BME280;29632;49.168;9.848;2023-04-01T12:44:47;95445.78;;;12.12;52.75
40838;BME280;29632;49.168;9.848;2023-04-01T12:50:23;95457.25;;;12.11;52.86
40838;BME280;29632;49.168;9.848;2023-04-01T12:55:43;95460.66;;;12.12;52.84
40838;BME280;29632;49.168;9.848;2023-04-01T12:58:34;95445.78;;;12.12;52.76
40838;BME280;29632;49.168;9.848;2023-04-01T13:03:48;95463.06;;;12.13;52.63
40838;BME280;29632;49.168;9.848;2023-04-01T13:23:14;95466.66;;;12.12;53.07
40838;BME280;29632;49.168;9.848;2023-04-01T13:26:07;95472.72;;;12.13;53.00
40838;BME280;29632;49.168;9.848;2023-04-01T13:32:01;95480.59;;;12.19;53.01
40838;BME280;29632;49.168;9.848;2023-04-01T13:34:44;95474.19;;;12.22;52.51
40838;BME280;29632;49.168;9.848;2023-04-01T13:37:30;95480.22;;;12.22;52.76
40838;BME280;29632;49.168;9.848;2023-04-01T13:42:51;95478.84;;;12.26;52.67
40838;BME280;29632;49.168;9.848;2023-04-01T14:10:04;95504.50;;;12.23;53.09
40838;BME280;29632;49.168;9.848;2023-04-01T14:15:40;95497.69;;;12.22;53.23
40838;BME280;29632;49.168;9.848;2023-04-01T14:23:37;95495.81;;;12.16;52.88
40838;BME280;29632;49.168;9.848;2023-04-01T14:31:54;95506.31;;;12.22;53.17
40838;BME280;29632;49.168;9.848;2023-04-01T14:34:25;95507.94;;;12.23;52.78
40838;BME280;29632;49.168;9.848;2023-04-01T14:40:20;95506.13;;;12.24;53.23
40838;BME280;29632;49.168;9.848;2023-04-01T14:49:04;95508.13;;;12.22;52.87
40838;BME280;29632;49.168;9.848;2023-04-01T14:51:39;95508.31;;;12.20;53.16
40838;BME280;29632;49.168;9.848;2023-04-01T14:54:29;95511.91;;;12.19;53.23
40838;BME280;29632;49.168;9.848;2023-04-01T14:57:14;95530.81;;;12.21;52.78
40838;BME280;29632;49.168;9.848;2023-04-01T14:59:46;95528.00;;;12.23;52.91
40838;BME280;29632;49.168;9.848;2023-04-01T15:02:42;95518.00;;;12.26;52.60
40838;BME280;29632;49.168;9.848;2023-04-01T15:05:46;95514.03;;;12.31;52.92
40838;BME280;29632;49.168;9.848;2023-04-01T15:08:36;95531.50;;;12.30;52.60
40838;BME280;29632;49.168;9.848;2023-04-01T15:11:31;95523.22;;;12.26;52.73
40838;BME280;29632;49.168;9.848;2023-04-01T15:33:36;95540.47;;;12.42;52.64
40838;BME280;29632;49.168;9.848;2023-04-01T15:36:11;95550.09;;;12.42;52.88
40838;BME280;29632;49.168;9.848;2023-04-01T15:38:53;95539.22;;;12.38;52.55
40838;BME280;29632;49.168;9.848;2023-04-01T15:44:00;95550.72;;;12.44;52.84
40838;BME280;29632;49.168;9.848;2023-04-01T15:46:50;95554.41;;;12.50;52.60
40838;BME280;29632;49.168;9.848;2023-04-01T15:49:39;95552.41;;;12.52;52.57
40838;BME280;29632;49.168;9.848;2023-04-01T15:55:27;95546.75;;;12.48;52.65
40838;BME280;29632;49.168;9.848;2023-04-01T16:00:43;95555.22;;;12.50;52.44
40838;BME280;29632;49.168;9.848;2023-04-01T16:03:23;95554.00;;;12.53;52.44
40838;BME280;29632;49.168;9.848;2023-04-01T16:14:05;95552.59;;;12.50;52.65
40838;BME280;29632;49.168;9.848;2023-04-01T16:30:34;95574.72;;;12.54;52.65
40838;BME280;29632;49.168;9.848;2023-04-01T16:38:31;95570.06;;;12.50;52.71
40838;BME280;29632;49.168;9.848;2023-04-01T16:41:11;95577.53;;;12.53;52.51
40838;BME280;29632;49.168;9.848;2023-04-01T16:52:35;95585.44;;;12.59;52.66
40838;BME280;29632;49.168;9.848;2023-04-01T16:59:38;95582.19;;;12.57;52.74
40838;BME280;29632;49.168;9.848;2023-04-01T17:04:57;95591.00;;;12.56;52.69
40838;BME280;29632;49.168;9.848;2023-04-01T17:07:39;95607.69;;;12.55;52.54
40838;BME280;29632;49.168;9.848;2023-04-01T17:11:06;95593.44;;;12.58;52.48
40838;BME280;29632;49.168;9.848;2023-04-01T17:16:01;95600.56;;;12.64;52.64
40838;BME280;29632;49.168;9.848;2023-04-01T17:18:44;95606.41;;;12.66;52.47
40838;BME280;29632;49.168;9.848;2023-04-01T17:24:14;95602.22;;;12.72;52.24
40838;BME280;29632;49.168;9.848;2023-04-01T17:26:50;95604.66;;;12.73;52.60
40838;BME280;29632;49.168;9.848;2023-04-01T17:29:29;95607.69;;;12.77;52.16
40838;BME280;29632;49.168;9.848;2023-04-01T17:32:28;95608.13;;;12.80;52.51
40838;BME280;29632;49.168;9.848;2023-04-01T17:54:15;95636.25;;;12.78;52.58
40838;BME280;29632;49.168;9.848;2023-04-01T17:59:39;95637.81;;;12.73;52.65
40838;BME280;29632;49.168;9.848;2023-04-01T18:05:25;95645.13;;;12.77;52.31
40838;BME280;29632;49.168;9.848;2023-04-01T18:10:55;95656.25;;;12.86;52.45
40838;BME280;29632;49.168;9.848;2023-04-01T18:13:45;95665.50;;;12.89;52.45
40838;BME280;29632;49.168;9.848;2023-04-01T18:16:46;95667.75;;;12.92;52.50
40838;BME280;29632;49.168;9.848;2023-04-01T18:22:15;95663.41;;;12.99;52.04
40838;BME280;29632;49.168;9.848;2023-04-01T18:25:05;95669.88;;;13.03;51.98
40838;BME280;29632;49.168;9.848;2023-04-01T18:27:42;95677.91;;;13.01;52.00
40838;BME280;29632;49.168;9.848;2023-04-01T18:30:28;95677.72;;;13.03;52.13
40838;BME280;29632;49.168;9.848;2023-04-01T18:32:59;95682.81;;;13.11;52.08
40838;BME280;29632;49.168;9.848;2023-04-01T18:38:33;95697.72;;;13.11;51.86
40838;BME280;29632;49.168;9.848;2023-04-01T18:41:26;95701.69;;;13.07;51.94
40838;BME280;29632;49.168;9.848;2023-04-01T18:44:05;95696.00;;;13.03;52.05
40838;BME280;29632;49.168;9.848;2023-04-01T18:51:51;95708.75;;;12.91;52.43
40838;BME280;29632;49.168;9.848;2023-04-01T18:57:25;95719.16;;;12.84;52.28
40838;BME280;29632;49.168;9.848;2023-04-01T19:00:03;95732.31;;;12.76;52.68
40838;BME280;29632;49.168;9.848;2023-04-01T19:02:38;95729.25;;;12.73;52.50
40838;BME280;29632;49.168;9.848;2023-04-01T19:05:40;95731.50;;;12.76;52.34
40838;BME280;29632;49.168;9.848;2023-04-01T19:08:29;95725.63;;;12.74;52.48
40838;BME280;29632;49.168;9.848;2023-04-01T19:10:58;95735.63;;;12.70;52.30
40838;BME280;29632;49.168;9.848;2023-04-01T19:19:08;95732.53;;;12.60;52.38
40838;BME280;29632;49.168;9.848;2023-04-01T19:24:40;95745.31;;;12.55;52.73
40838;BME280;29632;49.168;9.848;2023-04-01T19:38:23;95744.56;;;12.61;52.33
40838;BME280;29632;49.168;9.848;2023-04-01T19:40:53;95747.19;;;12.61;52.59
40838;BME280;29632;49.168;9.848;2023-04-01T19:46:02;95745.81;;;12.65;52.23
40838;BME280;29632;49.168;9.848;2023-04-01T19:57:03;95753.13;;;12.70;52.38
40838;BME280;29632;49.168;9.848;2023-04-01T19:59:37;95750.41;;;12.63;52.54
40838;BME280;29632;49.168;9.848;2023-04-01T20:04:46;95757.28;;;12.64;52.34
40838;BME280;29632;49.168;9.848;2023-04-01T20:07:34;95759.53;;;12.67;52.56
40838;BME280;29632;49.168;9.848;2023-04-01T20:15:34;95767.91;;;12.77;52.32
40838;BME280;29632;49.168;9.848;2023-04-01T20:18:04;95768.53;;;12.79;52.18
40838;BME280;29632;49.168;9.848;2023-04-01T20:20:31;95761.94;;;12.83;52.38
40838;BME280;29632;49.168;9.848;2023-04-01T20:25:46;95771.84;;;12.88;52.10
40838;BME280;29632;49.168;9.848;2023-04-01T20:40:06;95784.75;;;12.75;51.99
40838;BME280;29632;49.168;9.848;2023-04-01T20:45:38;95787.34;;;12.75;52.07
40838;BME280;29632;49.168;9.848;2023-04-01T20:50:52;95800.41;;;12.75;52.31
40838;BME280;29632;49.168;9.848;2023-04-01T20:53:28;95806.44;;;12.75;52.35
40838;BME280;29632;49.168;9.848;2023-04-01T20:56:21;95816.34;;;12.80;52.09
40838;BME280;29632;49.168;9.848;2023-04-01T20:59:02;95810.44;;;12.86;52.18
40838;BME280;29632;49.168;9.848;2023-04-01T21:02:12;95817.88;;;12.89;51.68
40838;BME280;29632;49.168;9.848;2023-04-01T21:07:37;95828.78;;;12.93;52.09
40838;BME280;29632;49.168;9.848;2023-04-01T21:11:09;95827.63;;;12.95;51.90
40838;BME280;29632;49.168;9.848;2023-04-01T21:13:47;95835.53;;;13.02;51.98
40838;BME280;29632;49.168;9.848;2023-04-01T21:16:25;95835.91;;;12.99;51.77
40838;BME280;29632;49.168;9.848;2023-04-01T21:27:09;95842.69;;;12.93;52.12
40838;BME280;29632;49.168;9.848;2023-04-01T21:33:00;95842.03;;;12.91;51.87
40838;BME280;29632;49.168;9.848;2023-04-01T21:35:39;95847.00;;;12.86;52.00
40838;BME280;29632;49.168;9.848;2023-04-01T21:43:48;95847.00;;;12.86;51.89
40838;BME280;29632;49.168;9.848;2023-04-01T21:57:44;95871.59;;;12.77;52.09
40838;BME280;29632;49.168;9.848;2023-04-01T22:00:23;95877.81;;;12.76;52.39
40838;BME280;29632;49.168;9.848;2023-04-01T22:03:16;95870.59;;;12.78;52.27
40838;BME280;29632;49.168;9.848;2023-04-01T22:05:54;95871.22;;;12.80;52.07
40838;BME280;29632;49.168;9.848;2023-04-01T22:08:34;95877.44;;;12.79;51.99
40838;BME280;29632;49.168;9.848;2023-04-01T22:11:26;95875.38;;;12.74;52.10
40838;BME280;29632;49.168;9.848;2023-04-01T22:16:59;95872.59;;;12.76;51.98
40838;BME280;29632;49.168;9.848;2023-04-01T22:22:25;95882.38;;;12.74;52.26
40838;BME280;29632;49.168;9.848;2023-04-01T22:25:10;95882.59;;;12.72;52.47
40838;BME280;29632;49.168;9.848;2023-04-01T22:27:54;95873.75;;;12.73;52.45
40838;BME280;29632;49.168;9.848;2023-04-01T22:30:32;95889.25;;;12.75;52.11
40838;BME280;29632;49.168;9.848;2023-04-01T22:33:12;95884.19;;;12.73;52.08